createdAt,value
2023-04-28T00:00:59.461Z,100656.28
2023-04-28T00:03:04.911Z,100651.75
2023-04-28T00:05:10.409Z,100656.04
2023-04-28T00:07:15.821Z,100652.25
2023-04-28T00:09:20.820Z,100648.71
2023-04-28T00:11:25.927Z,100654.3
2023-04-28T00:13:30.968Z,100652.79
2023-04-28T00:15:36.108Z,100653.53
2023-04-28T00:17:41.296Z,100652.41
2023-04-28T00:19:46.490Z,100650.16
2023-04-28T00:21:51.524Z,100651.28
2023-04-28T00:23:56.868Z,100643.05
2023-04-28T00:26:01.975Z,100642.09
2023-04-28T00:28:07.099Z,100643.23
2023-04-28T00:30:12.240Z,100638.58
2023-04-28T00:32:17.254Z,100637.38
2023-04-28T00:34:22.333Z,100638.64
2023-04-28T00:36:27.391Z,100636.56
2023-04-28T00:38:32.458Z,100635.4
2023-04-28T00:40:37.512Z,100637.52
2023-04-28T00:42:42.514Z,100634.14
2023-04-28T00:44:47.639Z,100632.06
2023-04-28T00:46:52.757Z,100631.24
2023-04-28T00:48:57.809Z,100631.75
2023-04-28T00:51:02.870Z,100624.6
2023-04-28T00:53:07.916Z,100625.22
2023-04-28T00:55:12.992Z,100621.74
2023-04-28T00:57:18.036Z,100618.84
2023-04-28T00:59:23.067Z,100615.62
2023-04-28T01:01:28.208Z,100610.71
2023-04-28T01:03:33.606Z,100613.4
2023-04-28T01:05:38.965Z,100609.63
2023-04-28T01:07:44.000Z,100612.81
2023-04-28T01:09:49.242Z,100611.39
2023-04-28T01:11:54.359Z,100612
2023-04-28T01:13:59.531Z,100607.27
2023-04-28T01:16:04.638Z,100605.57
2023-04-28T01:18:09.894Z,100607.3
2023-04-28T01:20:15.008Z,100605.3
2023-04-28T01:22:20.070Z,100604.17
2023-04-28T01:24:25.182Z,100609.11
2023-04-28T01:26:30.195Z,100601.72
2023-04-28T01:28:35.259Z,100599.17
2023-04-28T01:30:40.301Z,100596.09
2023-04-28T01:32:45.526Z,100597.59
2023-04-28T01:34:50.631Z,100595.83
2023-04-28T01:36:55.761Z,100589.66
2023-04-28T01:39:00.998Z,100594.77
2023-04-28T01:41:06.023Z,100591.74
2023-04-28T01:43:11.257Z,100591.84
2023-04-28T01:45:16.278Z,100593.95
2023-04-28T01:47:21.446Z,100591.73
2023-04-28T01:49:26.606Z,100588.8
2023-04-28T01:51:31.740Z,100587.98
2023-04-28T01:53:36.761Z,100586.12
2023-04-28T01:55:41.794Z,100582.75
2023-04-28T01:57:46.836Z,100589.22
2023-04-28T01:59:51.927Z,100591.19
2023-04-28T02:01:57.203Z,100589.92
2023-04-28T02:04:02.962Z,100594.48
2023-04-28T02:06:08.170Z,100591.02
2023-04-28T02:08:13.224Z,100587.45
2023-04-28T02:10:18.255Z,100583.73
2023-04-28T02:12:24.972Z,100579.89
2023-04-28T02:14:30.007Z,100579.63
2023-04-28T02:16:35.479Z,100579.08
2023-04-28T02:18:40.516Z,100580.92
2023-04-28T02:20:45.554Z,100582.34
2023-04-28T02:22:50.686Z,100581.39
2023-04-28T02:24:55.783Z,100578.45
2023-04-28T02:27:00.842Z,100574.17
2023-04-28T02:29:05.870Z,100576.38
2023-04-28T02:31:11.040Z,100577.44
2023-04-28T02:33:16.143Z,100578.28
2023-04-28T02:35:21.223Z,100581.82
2023-04-28T02:37:26.376Z,100575.2
2023-04-28T02:39:31.434Z,100572.28
2023-04-28T02:41:36.587Z,100568.61
2023-04-28T02:43:41.601Z,100565.99
2023-04-28T02:45:46.732Z,100571.36
2023-04-28T02:47:51.891Z,100573.03
2023-04-28T02:49:56.981Z,100572.63
2023-04-28T02:52:02.037Z,100567.25
2023-04-28T02:54:07.054Z,100563.88
2023-04-28T02:56:12.090Z,100566.09
2023-04-28T02:58:17.161Z,100568.13
2023-04-28T03:00:22.514Z,100569.97
2023-04-28T03:02:27.835Z,100567.62
2023-04-28T03:05:59.079Z,100564.34
2023-04-28T03:08:04.159Z,100563.55
2023-04-28T03:10:09.277Z,100562.39
2023-04-28T03:12:14.423Z,100561.03
2023-04-28T03:14:19.630Z,100561.65
2023-04-28T03:16:24.811Z,100559.61
2023-04-28T03:18:29.971Z,100561.64
2023-04-28T03:20:35.045Z,100556.79
2023-04-28T03:22:40.104Z,100556.52
2023-04-28T03:24:45.191Z,100553.31
2023-04-28T03:26:50.233Z,100557.6
2023-04-28T03:28:55.295Z,100549.67
2023-04-28T03:31:00.342Z,100552.8
2023-04-28T03:33:05.569Z,100556
2023-04-28T03:35:10.748Z,100565.66
2023-04-28T03:37:15.838Z,100561.23
2023-04-28T03:39:20.864Z,100557.69
2023-04-28T03:41:25.918Z,100564.42
2023-04-28T03:43:30.981Z,100570.53
2023-04-28T03:45:36.115Z,100561.34
2023-04-28T03:47:41.272Z,100561.07
2023-04-28T03:49:46.277Z,100565.01
2023-04-28T03:51:51.359Z,100559.94
2023-04-28T03:53:56.503Z,100559.39
2023-04-28T03:56:01.598Z,100556.67
2023-04-28T03:58:06.672Z,100554.66
2023-04-28T04:00:11.833Z,100558.61
2023-04-28T04:02:17.042Z,100555.98
2023-04-28T04:04:23.631Z,100557.23
2023-04-28T04:06:29.863Z,100550.98
2023-04-28T04:08:34.890Z,100551.25
2023-04-28T04:10:39.995Z,100552.16
2023-04-28T04:12:45.022Z,100547.84
2023-04-28T04:14:50.054Z,100551.08
2023-04-28T04:16:55.090Z,100557.5
2023-04-28T04:19:00.149Z,100558.8
2023-04-28T04:21:05.182Z,100554.67
2023-04-28T04:23:10.208Z,100560.38
2023-04-28T04:25:15.387Z,100560.2
2023-04-28T04:27:20.426Z,100561.02
2023-04-28T04:29:25.549Z,100556.81
2023-04-28T04:31:30.715Z,100556.34
2023-04-28T04:33:35.920Z,100556.09
2023-04-28T04:35:40.956Z,100553.61
2023-04-28T04:37:46.008Z,100549.8
2023-04-28T04:39:51.115Z,100552.15
2023-04-28T04:41:56.185Z,100548.57
2023-04-28T04:44:01.416Z,100544.73
2023-04-28T04:46:06.602Z,100544.05
2023-04-28T04:48:11.867Z,100541.29
2023-04-28T04:50:17.088Z,100541.56
2023-04-28T04:52:22.140Z,100539.96
2023-04-28T04:54:27.183Z,100539.98
2023-04-28T04:56:32.274Z,100548.94
2023-04-28T04:58:37.310Z,100544.24
2023-04-28T05:00:42.342Z,100541.89
2023-04-28T05:02:47.765Z,100550.08
2023-04-28T05:04:53.679Z,100551.14
2023-04-28T05:07:12.065Z,100545.94
2023-04-28T05:09:17.198Z,100553.72
2023-04-28T05:11:22.248Z,100543.17
2023-04-28T05:13:27.262Z,100538.19
2023-04-28T05:15:32.316Z,100533.98
2023-04-28T05:17:37.456Z,100529.9
2023-04-28T05:19:42.574Z,100525.53
2023-04-28T05:21:47.657Z,100527.35
2023-04-28T05:23:52.807Z,100530.02
2023-04-28T05:25:57.852Z,100531.83
2023-04-28T05:28:02.874Z,100532.56
2023-04-28T05:30:07.943Z,100533.25
2023-04-28T05:32:13.331Z,100531.63
2023-04-28T05:34:19.397Z,100528.53
2023-04-28T05:36:24.653Z,100529.55
2023-04-28T05:38:29.722Z,100529.86
2023-04-28T05:40:34.781Z,100527.18
2023-04-28T05:42:39.951Z,100528.14
2023-04-28T05:44:44.988Z,100527.25
2023-04-28T05:46:50.259Z,100529.53
2023-04-28T05:48:55.557Z,100524.39
2023-04-28T05:51:00.603Z,100527.59
2023-04-28T05:53:05.668Z,100521.02
2023-04-28T05:55:10.790Z,100518.2
2023-04-28T05:57:15.789Z,100516.15
2023-04-28T05:59:20.960Z,100521.39
2023-04-28T06:01:25.999Z,100518.05
2023-04-28T06:03:31.528Z,100517.53
2023-04-28T06:05:37.630Z,100523.19
2023-04-28T06:07:43.290Z,100522.39
2023-04-28T06:09:48.300Z,100517.75
2023-04-28T06:11:53.361Z,100517.95
2023-04-28T06:13:58.385Z,100514.68
2023-04-28T06:16:03.540Z,100509.02
2023-04-28T06:18:09.026Z,100507.66
2023-04-28T06:20:14.204Z,100504.17
2023-04-28T06:22:19.270Z,100505.8
2023-04-28T06:24:24.333Z,100504.13
2023-04-28T06:26:29.408Z,100509.98
2023-04-28T06:28:34.472Z,100505.25
2023-04-28T06:30:39.542Z,100508.83
2023-04-28T06:32:44.710Z,100504.33
2023-04-28T06:34:49.876Z,100506.47
2023-04-28T06:36:54.965Z,100506.78
2023-04-28T06:39:00.137Z,100506.23
2023-04-28T06:41:05.365Z,100504.8
2023-04-28T06:43:10.351Z,100504.28
2023-04-28T06:45:15.299Z,100499.47
2023-04-28T06:47:20.803Z,100498.63
2023-04-28T06:49:25.774Z,100498.38
2023-04-28T06:51:30.826Z,100500
2023-04-28T06:53:35.983Z,100502.17
2023-04-28T06:55:41.093Z,100499.48
2023-04-28T06:57:46.137Z,100498.47
2023-04-28T06:59:51.272Z,100502.27
2023-04-28T07:01:56.410Z,100492.56
2023-04-28T07:04:01.940Z,100490.55
2023-04-28T07:06:07.314Z,100488.18
2023-04-28T07:08:12.412Z,100484.61
2023-04-28T07:10:18.701Z,100482.53
2023-04-28T07:12:23.770Z,100479.36
2023-04-28T07:14:28.823Z,100481.14
2023-04-28T07:16:33.959Z,100475.11
2023-04-28T07:18:39.088Z,100476.57
2023-04-28T07:20:44.161Z,100479.99
2023-04-28T07:22:49.247Z,100478.94
2023-04-28T07:24:54.722Z,100475.44
2023-04-28T07:26:59.827Z,100469.28
2023-04-28T07:29:04.859Z,100471.02
2023-04-28T07:31:09.996Z,100467.52
2023-04-28T07:33:15.364Z,100470.46
2023-04-28T07:35:20.509Z,100468.58
2023-04-28T07:37:25.592Z,100465.76
2023-04-28T07:39:30.642Z,100462.39
2023-04-28T07:41:36.394Z,100461.88
2023-04-28T07:43:41.502Z,100464.77
2023-04-28T07:45:46.803Z,100467.26
2023-04-28T07:47:52.063Z,100453.8
2023-04-28T07:49:57.257Z,100454.25
2023-04-28T07:52:02.346Z,100454.59
2023-04-28T07:54:07.447Z,100451.35
2023-04-28T07:56:12.491Z,100439.67
2023-04-28T07:58:17.532Z,100439.96
2023-04-28T08:00:22.751Z,100439.34
2023-04-28T08:02:28.205Z,100434.16
2023-04-28T08:04:33.750Z,100429.23
2023-04-28T08:06:41.229Z,100432.77
2023-04-28T08:08:46.458Z,100431.44
2023-04-28T08:10:51.546Z,100431.8
2023-04-28T08:12:56.599Z,100428.12
2023-04-28T08:15:01.739Z,100425.93
2023-04-28T08:17:06.847Z,100425.59
2023-04-28T08:19:11.876Z,100428.83
2023-04-28T08:21:16.928Z,100422
2023-04-28T08:23:21.986Z,100418.59
2023-04-28T08:25:27.021Z,100418.76
2023-04-28T08:27:32.199Z,100422.3
2023-04-28T08:29:37.296Z,100419.67
2023-04-28T08:31:42.661Z,100414.35
2023-04-28T08:33:48.320Z,100414.2
2023-04-28T08:35:53.377Z,100406.89
2023-04-28T08:37:58.556Z,100407.73
2023-04-28T08:40:03.698Z,100403.36
2023-04-28T08:42:08.771Z,100403.53
2023-04-28T08:44:13.851Z,100400.86
2023-04-28T08:46:19.609Z,100399.41
2023-04-28T08:48:24.773Z,100390.3
2023-04-28T08:50:29.828Z,100391.42
2023-04-28T08:52:34.876Z,100392.23
2023-04-28T08:54:39.926Z,100392.48
2023-04-28T08:56:45.016Z,100390.3
2023-04-28T08:58:50.100Z,100384.29
2023-04-28T09:00:55.254Z,100391.38
2023-04-28T09:03:00.862Z,100385.51
2023-04-28T09:05:06.869Z,100382.16
2023-04-28T09:07:12.672Z,100381.75
2023-04-28T09:09:17.865Z,100379.34
2023-04-28T09:11:22.973Z,100381.55
2023-04-28T09:13:28.078Z,100379.98
2023-04-28T09:15:35.398Z,100375.17
2023-04-28T09:17:40.522Z,100373.22
2023-04-28T09:19:45.680Z,100371.25
2023-04-28T09:21:50.898Z,100365.13
2023-04-28T09:23:56.030Z,100366.97
2023-04-28T09:26:01.143Z,100357.27
2023-04-28T09:28:06.267Z,100366.84
2023-04-28T09:30:11.306Z,100353.72
2023-04-28T09:32:17.024Z,100344.59
2023-04-28T09:34:22.444Z,100369.51
2023-04-28T09:36:27.463Z,100352.77
2023-04-28T09:38:32.582Z,100349.61
2023-04-28T09:40:37.648Z,100339.14
2023-04-28T09:42:43.000Z,100337.98
2023-04-28T09:44:48.371Z,100332.27
2023-04-28T09:46:53.381Z,100333.63
2023-04-28T09:48:58.415Z,100328.87
2023-04-28T09:51:03.512Z,100326.91
2023-04-28T09:53:08.632Z,100326.19
2023-04-28T09:55:13.725Z,100320.7
2023-04-28T09:57:18.771Z,100319.28
2023-04-28T09:59:24.286Z,100315.23
2023-04-28T10:01:29.582Z,100315.78
2023-04-28T10:03:35.041Z,100318.36
2023-04-28T10:05:40.593Z,100309.45
2023-04-28T10:07:45.827Z,100308.17
2023-04-28T10:09:50.985Z,100296.6
2023-04-28T10:11:56.105Z,100293.8
2023-04-28T10:14:01.159Z,100287.35
2023-04-28T10:16:06.284Z,100284.38
2023-04-28T10:18:11.533Z,100281.27
2023-04-28T10:20:16.749Z,100277
2023-04-28T10:22:21.767Z,100272.39
2023-04-28T10:24:26.916Z,100268.12
2023-04-28T10:26:31.982Z,100268.25
2023-04-28T10:28:37.275Z,100261.95
2023-04-28T10:30:42.411Z,100261.2
2023-04-28T10:32:47.549Z,100260.05
2023-04-28T10:34:52.681Z,100256.13
2023-04-28T10:36:57.762Z,100251.69
2023-04-28T10:39:02.796Z,100247.8
2023-04-28T10:41:07.857Z,100248.01
2023-04-28T10:43:12.912Z,100248.41
2023-04-28T10:45:17.976Z,100241.59
2023-04-28T10:47:23.152Z,100237.84
2023-04-28T10:49:28.278Z,100238.02
2023-04-28T10:51:33.506Z,100239.16
2023-04-28T10:53:38.691Z,100236.22
2023-04-28T10:55:43.816Z,100238.87
2023-04-28T10:57:48.980Z,100237.64
2023-04-28T10:59:54.015Z,100230.13
2023-04-28T11:01:59.122Z,100225.78
2023-04-28T11:04:05.208Z,100228.34
2023-04-28T11:06:10.603Z,100226.36
2023-04-28T11:08:15.673Z,100223
2023-04-28T11:10:20.723Z,100219.08
2023-04-28T11:12:25.779Z,100215.76
2023-04-28T11:14:30.848Z,100219.46
2023-04-28T11:16:36.073Z,100217.14
2023-04-28T11:18:41.201Z,100216.61
2023-04-28T11:20:46.230Z,100215.88
2023-04-28T11:22:51.316Z,100218.9
2023-04-28T11:24:56.489Z,100212.1
2023-04-28T11:27:01.621Z,100213.77
2023-04-28T11:29:06.712Z,100208.75
2023-04-28T11:31:11.721Z,100201.8
2023-04-28T11:33:16.836Z,100203.19
2023-04-28T11:35:21.911Z,100199.19
2023-04-28T11:37:27.295Z,100189.45
2023-04-28T11:39:32.521Z,100189.45
2023-04-28T11:41:37.678Z,100185.81
2023-04-28T11:43:48.732Z,100190.51
2023-04-28T11:45:53.856Z,100186.91
2023-04-28T11:47:59.143Z,100187.04
2023-04-28T11:50:04.759Z,100180.34
2023-04-28T11:52:09.910Z,100172.33
2023-04-28T11:54:15.075Z,100172.8
2023-04-28T11:56:20.336Z,100171.86
2023-04-28T11:58:25.597Z,100174.15
2023-04-28T12:00:30.735Z,100174.98
2023-04-28T12:02:35.955Z,100172.98
2023-04-28T12:04:41.305Z,100167.33
2023-04-28T12:06:46.376Z,100165.76
2023-04-28T12:08:51.550Z,100169.4
2023-04-28T12:10:56.582Z,100169.16
2023-04-28T12:13:01.598Z,100169
2023-04-28T12:15:06.633Z,100163.95
2023-04-28T12:17:11.775Z,100164.95
2023-04-28T12:19:16.958Z,100162.63
2023-04-28T12:21:22.000Z,100158.3
2023-04-28T12:23:27.048Z,100161.44
2023-04-28T12:25:32.190Z,100161.72
2023-04-28T12:27:39.792Z,100158.88
2023-04-28T12:29:45.465Z,100157.17
2023-04-28T12:31:51.406Z,100146.74
2023-04-28T12:33:56.692Z,100149.8
2023-04-28T12:36:01.770Z,100145.2
2023-04-28T12:38:06.787Z,100140.15
2023-04-28T12:40:11.918Z,100136.12
2023-04-28T12:42:17.008Z,100134.63
2023-04-28T12:44:22.122Z,100136.88
2023-04-28T12:46:27.276Z,100133.34
2023-04-28T12:48:32.381Z,100128.13
2023-04-28T12:50:37.482Z,100124.95
2023-04-28T12:52:42.640Z,100126.57
2023-04-28T12:54:47.704Z,100135.36
2023-04-28T12:56:52.831Z,100131.34
2023-04-28T12:58:57.915Z,100125.23
2023-04-28T13:01:03.011Z,100124.39
2023-04-28T13:03:08.663Z,100113.86
2023-04-28T13:05:14.235Z,100112.28
2023-04-28T13:07:19.361Z,100110.8
2023-04-28T13:09:24.518Z,100109.53
2023-04-28T13:11:29.580Z,100112.43
2023-04-28T13:13:34.609Z,100107.45
2023-04-28T13:15:40.303Z,100105.27
2023-04-28T13:17:45.437Z,100108.55
2023-04-28T13:19:50.599Z,100108.89
2023-04-28T13:21:56.083Z,100102.02
2023-04-28T13:24:01.179Z,100106.91
2023-04-28T13:26:06.254Z,100100.98
2023-04-28T13:28:11.373Z,100104.09
2023-04-28T13:30:16.481Z,100106.09
2023-04-28T13:32:21.524Z,100100.52
2023-04-28T13:34:26.824Z,100102.87
2023-04-28T13:36:31.942Z,100086.37
2023-04-28T13:38:37.053Z,100087.26
2023-04-28T13:40:42.207Z,100101.64
2023-04-28T13:42:47.279Z,100088.98
2023-04-28T13:44:52.308Z,100082.5
2023-04-28T13:46:57.351Z,100083.7
2023-04-28T13:49:02.482Z,100076.7
2023-04-28T13:51:07.560Z,100083.23
2023-04-28T13:53:12.656Z,100089.66
2023-04-28T13:55:17.785Z,100080.61
2023-04-28T13:57:22.922Z,100076.97
2023-04-28T13:59:27.969Z,100075.17
2023-04-28T14:01:33.135Z,100070.55
2023-04-28T14:03:38.649Z,100075.91
2023-04-28T14:05:50.977Z,100068.95
2023-04-28T14:07:56.130Z,100089.65
2023-04-28T14:10:01.364Z,100061.48
2023-04-28T14:12:06.522Z,100063.84
2023-04-28T14:14:11.617Z,100055.26
2023-04-28T14:16:16.799Z,100054.13
2023-04-28T14:18:22.003Z,100055.4
2023-04-28T14:20:29.264Z,100048.41
2023-04-28T14:22:34.311Z,100044.41
2023-04-28T14:24:39.394Z,100046.27
2023-04-28T14:26:44.506Z,100046.78
2023-04-28T14:28:49.605Z,100045.19
2023-04-28T14:30:54.779Z,100040.51
2023-04-28T14:33:00.013Z,100040.95
2023-04-28T14:35:05.419Z,100040.13
2023-04-28T14:37:10.626Z,100037.55
2023-04-28T14:39:15.819Z,100037.84
2023-04-28T14:41:20.997Z,100043.67
2023-04-28T14:43:26.113Z,100042.35
2023-04-28T14:45:31.202Z,100042.17
2023-04-28T14:47:36.374Z,100042.41
2023-04-28T14:49:41.556Z,100031.78
2023-04-28T14:51:46.646Z,100031.21
2023-04-28T14:53:51.733Z,100029.97
2023-04-28T14:56:17.640Z,100026.31
2023-04-28T14:58:23.894Z,100019.14
2023-04-28T15:00:28.997Z,100017.44
2023-04-28T15:02:34.213Z,100015.94
2023-04-28T15:04:39.653Z,100015.16
2023-04-28T15:06:44.956Z,100010.23
2023-04-28T15:08:50.049Z,100010.41
2023-04-28T15:10:55.161Z,100007.44
2023-04-28T15:13:00.338Z,99999.8
2023-04-28T15:15:05.344Z,99996.11
2023-04-28T15:17:10.293Z,99998.91
2023-04-28T15:19:15.253Z,100000.55
2023-04-28T15:21:20.291Z,99996.31
2023-04-28T15:23:25.402Z,99995.1
2023-04-28T15:25:30.481Z,99999.41
2023-04-28T15:27:35.564Z,99992.73
2023-04-28T15:29:40.783Z,99992.05
2023-04-28T15:31:45.981Z,99983.89
2023-04-28T15:33:50.999Z,99983.16
2023-04-28T15:35:56.018Z,99984.42
2023-04-28T15:38:01.027Z,99978.24
2023-04-28T15:40:06.126Z,99986.5
2023-04-28T15:42:11.155Z,99980.11
2023-04-28T15:44:16.211Z,99976.73
2023-04-28T15:46:21.396Z,99977.11
2023-04-28T15:48:26.633Z,99979.62
2023-04-28T15:50:31.652Z,99976.03
2023-04-28T15:52:36.794Z,99976.3
2023-04-28T15:54:41.791Z,99976.91
2023-04-28T15:56:46.820Z,99975
2023-04-28T15:58:52.010Z,99974.67
2023-04-28T16:00:57.407Z,99970.7
2023-04-28T16:03:02.964Z,99968.66
2023-04-28T16:05:08.256Z,99968.46
2023-04-28T16:07:13.386Z,99966.09
2023-04-28T16:09:18.411Z,99966.45
2023-04-28T16:11:23.415Z,99964.36
2023-04-28T16:13:28.858Z,99961.2
2023-04-28T16:15:33.880Z,99966.36
2023-04-28T16:17:38.977Z,99968.95
2023-04-28T16:19:44.219Z,99962.86
2023-04-28T16:21:49.263Z,99961.61
2023-04-28T16:23:54.309Z,99955.77
2023-04-28T16:25:59.341Z,99960.26
2023-04-28T16:28:04.459Z,99950.86
2023-04-28T16:30:09.603Z,99956.13
2023-04-28T16:32:14.922Z,99949.58
2023-04-28T16:34:20.195Z,99944.41
2023-04-28T16:36:25.328Z,99945.89
2023-04-28T16:38:30.361Z,99952.45
2023-04-28T16:40:35.488Z,99946.45
2023-04-28T16:42:40.653Z,99948.75
2023-04-28T16:44:45.921Z,99948.53
2023-04-28T16:46:50.918Z,99941.2
2023-04-28T16:48:55.981Z,99946.33
2023-04-28T16:51:00.968Z,99945.34
2023-04-28T16:53:05.989Z,99941.77
2023-04-28T16:55:11.133Z,99946.02
2023-04-28T16:57:16.203Z,99941.58
2023-04-28T16:59:21.222Z,99943.63
2023-04-28T17:01:26.434Z,99939.73
2023-04-28T17:03:33.322Z,99937.05
2023-04-28T17:05:38.706Z,99940.08
2023-04-28T17:07:43.833Z,99941.31
2023-04-28T17:09:49.213Z,99941.18
2023-04-28T17:11:54.621Z,99933.96
2023-04-28T17:13:59.637Z,99935.33
2023-04-28T17:16:04.727Z,99934.84
2023-04-28T17:18:10.023Z,99938.97
2023-04-28T17:20:15.028Z,99947.37
2023-04-28T17:22:20.061Z,99935.08
2023-04-28T17:24:25.117Z,99940.55
2023-04-28T17:26:30.125Z,99935.61
2023-04-28T17:28:35.289Z,99926.78
2023-04-28T17:30:42.256Z,99936.78
2023-04-28T17:32:51.588Z,99936.3
2023-04-28T17:34:56.697Z,99930.59
2023-04-28T17:37:01.689Z,99931.48
2023-04-28T17:39:06.787Z,99925.45
2023-04-28T17:41:11.818Z,99922.98
2023-04-28T17:43:16.872Z,99924.5
2023-04-28T17:45:21.922Z,99922.25
2023-04-28T17:47:27.000Z,99923.22
2023-04-28T17:49:32.155Z,99924.14
2023-04-28T17:51:37.199Z,99919.41
2023-04-28T17:53:42.429Z,99921.75
2023-04-28T17:55:47.520Z,99925.41
2023-04-28T17:57:52.597Z,99929.28
2023-04-28T17:59:57.726Z,99928.86
2023-04-28T18:02:02.872Z,99928.38
2023-04-28T18:04:08.163Z,99924.15
2023-04-28T18:06:13.759Z,99927.25
2023-04-28T18:08:19.224Z,99926.16
2023-04-28T18:10:24.297Z,99927.56
2023-04-28T18:12:29.283Z,99926.18
2023-04-28T18:14:34.339Z,99928.03
2023-04-28T18:16:39.540Z,99926.69
2023-04-28T18:18:44.689Z,99930.36
2023-04-28T18:20:49.831Z,99926.05
2023-04-28T18:22:54.853Z,99927.91
2023-04-28T18:24:59.918Z,99933.95
2023-04-28T18:27:04.937Z,99932.57
2023-04-28T18:29:09.950Z,99932.92
2023-04-28T18:31:15.121Z,99933.09
2023-04-28T18:33:23.794Z,99932.19
2023-04-28T18:35:28.829Z,99930.74
2023-04-28T18:37:33.872Z,99934.27
2023-04-28T18:39:38.873Z,99938.66
2023-04-28T18:41:43.975Z,99936.35
2023-04-28T18:43:48.995Z,99935.73
2023-04-28T18:45:54.088Z,99938.78
2023-04-28T18:48:00.115Z,99939.81
2023-04-28T18:50:05.986Z,99938.2
2023-04-28T18:52:11.006Z,99945.39
2023-04-28T18:54:16.052Z,99940.68
2023-04-28T18:56:21.082Z,99939.5
2023-04-28T18:58:26.105Z,99937.55
2023-04-28T19:00:31.088Z,99936.56
2023-04-28T19:02:36.330Z,99935.75
2023-04-28T19:04:42.273Z,99933.86
2023-04-28T19:06:47.432Z,99928.67
2023-04-28T19:08:52.423Z,99934.59
2023-04-28T19:10:57.544Z,99932.92
2023-04-28T19:13:02.567Z,99933.06
2023-04-28T19:15:07.622Z,99929.16
2023-04-28T19:17:12.808Z,99929.77
2023-04-28T19:19:18.055Z,99928.25
2023-04-28T19:21:23.082Z,99924.8
2023-04-28T19:23:28.156Z,99927.36
2023-04-28T19:25:33.156Z,99934.05
2023-04-28T19:27:38.296Z,99934.86
2023-04-28T19:29:43.377Z,99932.22
2023-04-28T19:31:48.368Z,99929.91
2023-04-28T19:33:53.484Z,99930.49
2023-04-28T19:35:58.591Z,99926.89
2023-04-28T19:38:03.615Z,99928.17
2023-04-28T19:40:08.784Z,99928.98
2023-04-28T19:42:13.815Z,99930.71
2023-04-28T19:44:18.961Z,99932.02
2023-04-28T19:46:24.138Z,99936.3
2023-04-28T19:48:29.224Z,99932.98
2023-04-28T19:50:34.330Z,99933.09
2023-04-28T19:52:39.339Z,99929.31
2023-04-28T19:54:44.338Z,99930.95
2023-04-28T19:56:49.380Z,99935.94
2023-04-28T19:58:54.378Z,99937.28
2023-04-28T20:00:59.392Z,99930.92
2023-04-28T20:03:04.698Z,99934.08
2023-04-28T20:05:10.008Z,99935.12
2023-04-28T20:07:15.037Z,99934.34
2023-04-28T20:09:20.246Z,99935.38
2023-04-28T20:11:25.281Z,99935.92
2023-04-28T20:13:30.380Z,99941.52
2023-04-28T20:15:35.579Z,99944.45
2023-04-28T20:17:40.695Z,99946.85
2023-04-28T20:19:46.067Z,99948.08
2023-04-28T20:21:51.034Z,99943.11
2023-04-28T20:23:56.149Z,99943.69
2023-04-28T20:26:01.207Z,99945.43
2023-04-28T20:28:06.169Z,99941.13
2023-04-28T20:30:11.190Z,99935.13
2023-04-28T20:32:16.169Z,99938.49
2023-04-28T20:34:21.144Z,99940.95
2023-04-28T20:36:26.206Z,99938.03
2023-04-28T20:38:31.369Z,99938.2
2023-04-28T20:40:36.392Z,99940.25
2023-04-28T20:42:41.494Z,99941.48
2023-04-28T20:44:46.684Z,99938.05
2023-04-28T20:46:51.819Z,99935.47
2023-04-28T20:48:56.890Z,99937.34
2023-04-28T20:51:01.912Z,99931.08
2023-04-28T20:53:06.904Z,99926.97
2023-04-28T20:55:11.936Z,99926.84
2023-04-28T20:57:16.952Z,99920.14
2023-04-28T20:59:21.941Z,99915.47
2023-04-28T21:01:27.088Z,99914.98
2023-04-28T21:03:32.430Z,99914.47
2023-04-28T21:05:37.681Z,99911.87
2023-04-28T21:07:42.660Z,99912.92
2023-04-28T21:09:47.672Z,99915.23
2023-04-28T21:11:52.868Z,99914.08
2023-04-28T21:13:57.893Z,99911.56
2023-04-28T21:16:03.006Z,99908.25
2023-04-28T21:18:08.350Z,99907.64
2023-04-28T21:20:13.827Z,99908.34
2023-04-28T21:22:18.857Z,99909.39
2023-04-28T21:24:23.842Z,99906.64
2023-04-28T21:26:28.898Z,99917.2
2023-04-28T21:28:33.980Z,99910.27
2023-04-28T21:30:39.027Z,99907.11
2023-04-28T21:32:44.032Z,99906.72
2023-04-28T21:34:49.113Z,99904.55
2023-04-28T21:36:54.201Z,99906.05
2023-04-28T21:38:59.199Z,99905.24
2023-04-28T21:41:04.263Z,99903.59
2023-04-28T21:43:09.260Z,99905.97
2023-04-28T21:45:14.306Z,99907.86
2023-04-28T21:47:19.466Z,99903.39
2023-04-28T21:49:24.511Z,99901.59
2023-04-28T21:51:29.562Z,99899.35
2023-04-28T21:53:34.726Z,99899.78
2023-04-28T21:55:39.792Z,99897.41
2023-04-28T21:57:44.803Z,99897.65
2023-04-28T21:59:50.370Z,99899.63
2023-04-28T22:01:55.829Z,99901.47
2023-04-28T22:04:01.431Z,99899.84
2023-04-28T22:06:06.887Z,99898.2
2023-04-28T22:08:11.983Z,99893.95
2023-04-28T22:10:17.047Z,99891.7
2023-04-28T22:12:22.065Z,99895.58
2023-04-28T22:14:41.881Z,99891.84
2023-04-28T22:16:46.971Z,99898.39
2023-04-28T22:18:51.960Z,99887.16
2023-04-28T22:20:57.085Z,99884.36
2023-04-28T22:23:02.141Z,99889.35
2023-04-28T22:25:07.156Z,99887.54
2023-04-28T22:27:12.185Z,99882.36
2023-04-28T22:29:17.140Z,99884.54
2023-04-28T22:31:22.400Z,99876.42
2023-04-28T22:33:27.500Z,99876.1
2023-04-28T22:35:32.451Z,99874.52
2023-04-28T22:37:37.450Z,99878.21
2023-04-28T22:39:42.430Z,99875.87
2023-04-28T22:41:47.449Z,99876.91
2023-04-28T22:43:52.437Z,99879.44
2023-04-28T22:45:57.372Z,99871.86
2023-04-28T22:48:03.702Z,99874.07
2023-04-28T22:50:08.882Z,99870.83
2023-04-28T22:52:13.907Z,99875.22
2023-04-28T22:54:18.870Z,99868.28
2023-04-28T22:56:23.874Z,99866.09
2023-04-28T22:58:28.898Z,99867.31
2023-04-28T23:00:33.942Z,99862.33
2023-04-28T23:02:39.159Z,99861.16
2023-04-28T23:04:44.679Z,99861.64
2023-04-28T23:06:50.007Z,99861.2
2023-04-28T23:08:55.070Z,99857.02
2023-04-28T23:11:00.120Z,99857.27
2023-04-28T23:13:05.106Z,99862.05
2023-04-28T23:15:10.112Z,99861.09
2023-04-28T23:17:15.123Z,99863.47
2023-04-28T23:19:21.968Z,99856.91
2023-04-28T23:21:26.951Z,99854.8
2023-04-28T23:23:31.934Z,99860.36
2023-04-28T23:25:37.017Z,99855.2
2023-04-28T23:27:42.118Z,99853.7
2023-04-28T23:29:47.099Z,99851.48
2023-04-28T23:31:52.665Z,99855.77
2023-04-28T23:33:57.841Z,99845.25
2023-04-28T23:36:02.946Z,99843.88
2023-04-28T23:38:07.951Z,99840.43
2023-04-28T23:40:12.990Z,99840.81
2023-04-28T23:42:18.219Z,99832.75
2023-04-28T23:44:23.205Z,99827.02
2023-04-28T23:46:28.209Z,99830.11
2023-04-28T23:48:33.220Z,99827.02
2023-04-28T23:50:38.204Z,99818.95
2023-04-28T23:52:43.191Z,99817.33
2023-04-28T23:54:48.248Z,99812.92
2023-04-28T23:56:53.269Z,99813.38
2023-04-28T23:58:58.293Z,99811.11
